createdAt,value
2023-01-01T00:01:44.602Z,12.52
2023-01-01T00:04:49.949Z,12.64
2023-01-01T00:08:04.342Z,12.84
2023-01-01T00:11:12.412Z,13.03
2023-01-01T00:14:17.030Z,13.20
2023-01-01T00:17:21.640Z,13.35
2023-01-01T00:20:34.898Z,13.55
2023-01-01T00:23:43.660Z,13.78
2023-01-01T00:26:50.254Z,13.82
2023-01-01T00:29:55.008Z,13.90
2023-01-01T00:32:59.773Z,13.93
2023-01-01T00:36:09.378Z,14.03
2023-01-01T00:39:15.532Z,14.05
2023-01-01T00:42:22.338Z,14.16
2023-01-01T00:45:26.660Z,14.17
2023-01-01T00:48:31.581Z,14.29
2023-01-01T00:51:37.348Z,14.36
2023-01-01T00:54:44.015Z,14.36
2023-01-01T00:57:48.726Z,14.34
2023-01-01T01:00:55.734Z,14.40
2023-01-01T01:04:02.390Z,14.48
2023-01-01T01:07:07.185Z,14.48
2023-01-01T01:10:14.575Z,14.54
2023-01-01T01:13:19.451Z,14.48
2023-01-01T01:16:26.928Z,14.45
2023-01-01T01:19:33.455Z,14.44
2023-01-01T01:22:38.423Z,14.42
2023-01-01T01:25:44.523Z,14.39
2023-01-01T01:28:50.313Z,14.35
2023-01-01T01:31:55.057Z,14.30
2023-01-01T01:35:01.550Z,14.30
2023-01-01T01:38:07.009Z,14.23
2023-01-01T01:41:26.911Z,14.04
2023-01-01T01:45:03.256Z,13.84
2023-01-01T01:48:10.009Z,13.60
2023-01-01T01:51:17.682Z,13.44
2023-01-01T01:54:26.259Z,13.31
2023-01-01T01:57:34.052Z,13.21
2023-01-01T02:00:39.351Z,13.11
2023-01-01T02:03:50.031Z,13.00
2023-01-01T02:06:55.722Z,12.92
2023-01-01T02:10:00.941Z,12.85
2023-01-01T02:13:07.482Z,12.79
2023-01-01T02:16:21.841Z,12.78
2023-01-01T02:19:39.137Z,12.99
2023-01-01T02:23:05.504Z,13.28
2023-01-01T02:26:38.964Z,13.61
2023-01-01T02:29:51.091Z,13.86
2023-01-01T02:33:00.975Z,14.03
2023-01-01T02:36:08.429Z,14.18
2023-01-01T02:39:16.006Z,14.31
2023-01-01T02:42:23.020Z,14.45
2023-01-01T02:45:29.321Z,14.42
2023-01-01T02:48:40.975Z,14.46
2023-01-01T02:52:01.507Z,14.38
2023-01-01T02:55:12.091Z,14.42
2023-01-01T02:58:43.625Z,14.37
2023-01-01T03:01:56.907Z,14.26
2023-01-01T03:05:11.053Z,14.16
2023-01-01T03:08:19.788Z,14.03
2023-01-01T03:11:27.755Z,13.88
2023-01-01T03:14:42.308Z,13.67
2023-01-01T03:17:55.148Z,13.41
2023-01-01T03:21:04.348Z,13.14
2023-01-01T03:24:11.531Z,12.91
2023-01-01T03:27:20.264Z,12.64
2023-01-01T03:30:26.773Z,12.44
2023-01-01T03:33:39.497Z,12.32
2023-01-01T03:36:48.517Z,12.14
2023-01-01T03:39:54.866Z,12.02
2023-01-01T03:43:06.861Z,11.93
2023-01-01T03:46:13.045Z,11.78
2023-01-01T03:49:20.266Z,11.65
2023-01-01T03:52:33.583Z,11.49
2023-01-01T03:55:43.415Z,11.29
2023-01-01T03:58:55.996Z,11.18
2023-01-01T04:02:04.629Z,11.07
2023-01-01T04:05:12.455Z,10.95
2023-01-01T04:08:18.382Z,10.93
2023-01-01T04:11:45.358Z,10.87
2023-01-01T04:14:50.273Z,10.83
2023-01-01T04:17:56.749Z,10.71
2023-01-01T04:21:02.739Z,10.74
2023-01-01T04:24:10.249Z,10.72
2023-01-01T04:27:15.192Z,10.72
2023-01-01T04:30:20.307Z,10.69
2023-01-01T04:33:25.296Z,10.61
2023-01-01T04:36:31.483Z,10.60
2023-01-01T04:39:36.699Z,10.52
2023-01-01T04:42:41.633Z,10.45
2023-01-01T04:45:46.330Z,10.36
2023-01-01T04:48:51.397Z,10.38
2023-01-01T04:51:57.891Z,10.43
2023-01-01T04:55:02.534Z,10.43
2023-01-01T04:58:07.152Z,10.38
2023-01-01T05:01:17.742Z,10.41
2023-01-01T05:04:22.743Z,10.46
2023-01-01T05:07:29.364Z,10.38
2023-01-01T05:10:34.084Z,10.40
2023-01-01T05:13:39.856Z,10.40
2023-01-01T05:16:44.736Z,10.40
2023-01-01T05:19:49.871Z,10.39
2023-01-01T05:22:57.966Z,10.39
2023-01-01T05:26:02.612Z,10.45
2023-01-01T05:29:15.283Z,10.48
2023-01-01T05:32:21.030Z,10.50
2023-01-01T05:35:26.798Z,10.56
2023-01-01T05:38:33.427Z,10.59
2023-01-01T05:41:39.542Z,10.60
2023-01-01T05:44:44.269Z,10.64
2023-01-01T05:47:50.911Z,10.66
2023-01-01T05:50:55.751Z,10.67
2023-01-01T05:54:02.075Z,10.67
2023-01-01T05:57:06.720Z,10.72
2023-01-01T06:00:13.100Z,10.75
2023-01-01T06:03:18.383Z,10.76
2023-01-01T06:06:25.094Z,10.87
2023-01-01T06:09:31.321Z,11.02
2023-01-01T06:12:37.705Z,11.03
2023-01-01T06:15:42.880Z,11.06
2023-01-01T06:18:47.508Z,11.10
2023-01-01T06:21:52.337Z,11.13
2023-01-01T06:24:58.404Z,11.28
2023-01-01T06:28:04.400Z,11.41
2023-01-01T06:31:10.973Z,11.57
2023-01-01T06:34:15.931Z,11.73
2023-01-01T06:37:20.880Z,11.87
2023-01-01T06:40:27.348Z,12.09
2023-01-01T06:43:35.648Z,12.15
2023-01-01T06:46:41.324Z,12.28
2023-01-01T06:49:46.259Z,12.36
2023-01-01T06:52:50.855Z,12.42
2023-01-01T06:55:57.686Z,12.43
2023-01-01T06:59:03.341Z,12.44
2023-01-01T07:02:10.071Z,12.38
2023-01-01T07:05:15.215Z,12.22
2023-01-01T07:08:20.389Z,12.08
2023-01-01T07:11:27.314Z,11.87
2023-01-01T07:14:32.129Z,11.72
2023-01-01T07:17:39.576Z,11.64
2023-01-01T07:20:44.313Z,11.58
2023-01-01T07:23:49.280Z,11.44
2023-01-01T07:26:55.563Z,11.31
2023-01-01T07:30:00.161Z,11.20
2023-01-01T07:33:04.952Z,11.14
2023-01-01T07:36:10.687Z,11.15
2023-01-01T07:39:15.430Z,11.17
2023-01-01T07:42:22.072Z,11.23
2023-01-01T07:45:27.135Z,11.32
2023-01-01T07:48:39.587Z,11.37
2023-01-01T07:51:44.769Z,11.44
2023-01-01T07:54:49.892Z,11.53
2023-01-01T07:57:59.575Z,11.69
2023-01-01T08:01:04.548Z,11.83
2023-01-01T08:04:08.945Z,11.92
2023-01-01T08:07:13.414Z,12.09
2023-01-01T08:10:19.058Z,12.16
2023-01-01T08:13:25.559Z,12.12
2023-01-01T08:16:31.019Z,12.00
2023-01-01T08:19:36.045Z,11.92
2023-01-01T08:22:40.669Z,11.91
2023-01-01T08:25:45.345Z,11.85
2023-01-01T08:28:56.959Z,11.81
2023-01-01T08:32:03.915Z,11.78
2023-01-01T08:35:09.193Z,11.83
2023-01-01T08:38:15.153Z,11.85
2023-01-01T08:41:20.094Z,11.83
2023-01-01T08:44:26.579Z,11.87
2023-01-01T08:47:34.251Z,11.90
2023-01-01T08:50:38.901Z,12.00
2023-01-01T08:53:50.617Z,12.09
2023-01-01T08:56:55.935Z,12.27
2023-01-01T09:00:03.585Z,12.45
2023-01-01T09:03:10.191Z,12.60
2023-01-01T09:06:15.302Z,12.73
2023-01-01T09:09:25.732Z,12.84
2023-01-01T09:12:36.370Z,12.94
2023-01-01T09:15:43.469Z,13.02
2023-01-01T09:18:48.563Z,13.13
2023-01-01T09:21:54.200Z,13.21
2023-01-01T09:24:59.058Z,13.28
2023-01-01T09:28:05.124Z,13.34
2023-01-01T09:31:11.685Z,13.39
2023-01-01T09:34:16.966Z,13.53
2023-01-01T09:37:22.086Z,13.89
2023-01-01T09:40:35.847Z,14.25
2023-01-01T09:43:48.738Z,14.50
2023-01-01T09:46:56.157Z,14.86
2023-01-01T09:50:04.979Z,15.28
2023-01-01T09:53:15.308Z,15.57
2023-01-01T09:56:25.629Z,15.64
2023-01-01T09:59:30.939Z,15.61
2023-01-01T10:02:51.539Z,15.51
2023-01-01T10:06:11.124Z,15.50
2023-01-01T10:09:25.548Z,15.48
2023-01-01T10:12:38.757Z,15.59
2023-01-01T10:15:51.900Z,15.66
2023-01-01T10:19:00.845Z,15.71
2023-01-01T10:22:09.797Z,15.79
2023-01-01T10:25:20.149Z,15.89
2023-01-01T10:28:29.343Z,15.97
2023-01-01T10:31:36.540Z,16.04
2023-01-01T10:34:44.925Z,16.16
2023-01-01T10:37:53.404Z,16.30
2023-01-01T10:41:05.453Z,16.35
2023-01-01T10:44:11.090Z,16.43
2023-01-01T10:47:28.905Z,16.54
2023-01-01T10:50:45.379Z,16.67
2023-01-01T10:53:56.023Z,16.98
2023-01-01T10:57:02.432Z,17.67
2023-01-01T11:00:22.945Z,18.42
2023-01-01T11:03:29.509Z,18.93
2023-01-01T11:06:39.695Z,19.06
2023-01-01T11:09:57.209Z,18.96
2023-01-01T11:13:20.339Z,18.96
2023-01-01T11:16:25.603Z,19.24
2023-01-01T11:19:32.939Z,19.93
2023-01-01T11:22:43.695Z,20.48
2023-01-01T11:26:00.425Z,20.82
2023-01-01T11:29:19.572Z,20.81
2023-01-01T11:32:33.603Z,21.22
2023-01-01T11:35:51.763Z,21.11
2023-01-01T11:39:17.484Z,21.52
2023-01-01T11:42:25.841Z,21.78
2023-01-01T11:45:37.762Z,21.67
2023-01-01T11:48:45.925Z,21.88
2023-01-01T11:51:53.160Z,22.26
2023-01-01T11:55:06.976Z,22.28
2023-01-01T11:58:19.985Z,22.17
2023-01-01T12:01:29.142Z,22.10
2023-01-01T12:04:40.126Z,21.76
2023-01-01T12:07:46.391Z,21.78
2023-01-01T12:11:07.457Z,22.30
2023-01-01T12:14:21.880Z,23.06
2023-01-01T12:17:31.135Z,23.54
2023-01-01T12:20:40.222Z,23.61
2023-01-01T12:23:44.905Z,23.83
2023-01-01T12:27:15.976Z,24.11
2023-01-01T12:30:24.976Z,23.68
2023-01-01T12:33:46.266Z,23.78
2023-01-01T12:37:00.913Z,23.86
2023-01-01T12:40:52.077Z,23.60
2023-01-01T12:44:05.495Z,24.21
2023-01-01T12:47:19.240Z,24.54
2023-01-01T12:50:45.696Z,24.70
2023-01-01T12:54:06.363Z,24.06
2023-01-01T12:57:17.965Z,24.33
2023-01-01T13:00:26.743Z,24.59
2023-01-01T13:03:36.657Z,24.99
2023-01-01T13:06:46.079Z,25.62
2023-01-01T13:09:51.014Z,25.57
2023-01-01T13:12:57.064Z,25.16
2023-01-01T13:16:07.207Z,25.14
2023-01-01T13:19:27.769Z,25.43
2023-01-01T13:22:47.179Z,25.35
2023-01-01T13:26:11.730Z,25.52
2023-01-01T13:29:34.502Z,25.07
2023-01-01T13:33:25.135Z,25.08
2023-01-01T13:36:33.795Z,24.85
2023-01-01T13:39:54.594Z,24.03
2023-01-01T13:43:20.150Z,23.43
2023-01-01T13:46:38.855Z,23.36
2023-01-01T13:50:05.157Z,23.06
2023-01-01T13:53:31.051Z,22.93
2023-01-01T13:56:48.083Z,22.73
2023-01-01T14:00:16.583Z,22.55
2023-01-01T14:03:22.383Z,22.20
2023-01-01T14:06:37.654Z,21.86
2023-01-01T14:09:42.617Z,21.29
2023-01-01T14:12:48.124Z,20.80
2023-01-01T14:15:57.288Z,20.34
2023-01-01T14:19:03.877Z,20.00
2023-01-01T14:22:11.455Z,19.92
2023-01-01T14:25:18.950Z,19.68
2023-01-01T14:28:30.684Z,19.35
2023-01-01T14:31:41.287Z,19.02
2023-01-01T14:34:47.598Z,18.70
2023-01-01T14:37:54.109Z,18.47
2023-01-01T14:41:09.035Z,18.22
2023-01-01T14:44:17.153Z,17.95
2023-01-01T14:47:29.360Z,17.70
2023-01-01T14:50:35.726Z,17.44
2023-01-01T14:53:43.646Z,17.21
2023-01-01T14:56:53.288Z,16.97
2023-01-01T14:59:58.218Z,16.74
2023-01-01T15:03:08.781Z,16.53
2023-01-01T15:06:19.572Z,16.32
2023-01-01T15:09:28.261Z,16.14
2023-01-01T15:12:39.617Z,15.97
2023-01-01T15:15:46.119Z,15.79
2023-01-01T15:18:53.553Z,15.64
2023-01-01T15:21:58.632Z,15.48
2023-01-01T15:25:05.661Z,15.21
2023-01-01T15:28:21.384Z,14.95
2023-01-01T15:31:36.306Z,14.75
2023-01-01T15:34:48.358Z,14.52
2023-01-01T15:37:58.383Z,14.34
2023-01-01T15:41:28.526Z,14.18
2023-01-01T15:44:36.963Z,14.00
2023-01-01T15:47:42.169Z,13.82
2023-01-01T15:51:03.892Z,13.68
2023-01-01T15:54:17.758Z,13.54
2023-01-01T15:57:26.628Z,13.48
2023-01-01T16:00:38.837Z,13.36
2023-01-01T16:03:44.590Z,13.31
2023-01-01T16:06:51.242Z,13.26
2023-01-01T16:09:58.202Z,13.19
2023-01-01T16:13:05.399Z,13.08
2023-01-01T16:16:26.762Z,12.94
2023-01-01T16:19:33.611Z,12.89
2023-01-01T16:22:42.332Z,12.84
2023-01-01T16:25:47.463Z,12.76
2023-01-01T16:28:54.225Z,12.66
2023-01-01T16:31:59.417Z,12.60
2023-01-01T16:35:11.552Z,12.51
2023-01-01T16:38:16.589Z,12.41
2023-01-01T16:41:21.576Z,12.38
2023-01-01T16:44:29.552Z,12.31
2023-01-01T16:47:35.019Z,12.22
2023-01-01T16:50:40.194Z,12.16
2023-01-01T16:53:45.119Z,12.16
2023-01-01T16:56:52.002Z,12.10
2023-01-01T16:59:58.977Z,12.04
2023-01-01T17:03:03.934Z,12.03
2023-01-01T17:06:10.125Z,11.97
2023-01-01T17:09:15.892Z,11.91
2023-01-01T17:12:20.626Z,11.90
2023-01-01T17:15:26.950Z,11.85
2023-01-01T17:19:13.842Z,11.85
2023-01-01T17:21:57.125Z,11.83
2023-01-01T17:25:03.286Z,11.88
2023-01-01T17:28:08.077Z,12.07
2023-01-01T17:31:17.958Z,12.11
2023-01-01T17:34:22.775Z,12.11
2023-01-01T17:37:29.750Z,12.08
2023-01-01T17:40:36.986Z,12.01
2023-01-01T17:43:43.574Z,11.98
2023-01-01T17:46:49.867Z,11.93
2023-01-01T17:49:54.451Z,11.95
2023-01-01T17:52:59.446Z,11.81
2023-01-01T17:56:06.720Z,11.76
2023-01-01T17:59:11.614Z,11.65
2023-01-01T18:02:17.905Z,11.57
2023-01-01T18:05:22.902Z,11.52
2023-01-01T18:08:28.096Z,11.48
2023-01-01T18:11:36.021Z,11.38
2023-01-01T18:14:40.883Z,11.29
2023-01-01T18:17:47.046Z,11.14
2023-01-01T18:20:51.563Z,11.07
2023-01-01T18:23:58.030Z,11.06
2023-01-01T18:27:02.856Z,10.96
2023-01-01T18:30:08.392Z,10.88
2023-01-01T18:33:17.463Z,10.90
2023-01-01T18:36:24.839Z,10.84
2023-01-01T18:39:33.821Z,10.79
2023-01-01T18:42:45.153Z,10.87
2023-01-01T18:45:52.637Z,10.96
2023-01-01T18:49:02.064Z,10.94
2023-01-01T18:52:17.425Z,10.92
2023-01-01T18:55:27.455Z,10.98
2023-01-01T18:58:33.136Z,10.97
2023-01-01T19:01:38.188Z,10.98
2023-01-01T19:04:44.187Z,11.03
2023-01-01T19:07:58.260Z,11.31
2023-01-01T19:11:04.773Z,11.75
2023-01-01T19:14:16.830Z,12.28
2023-01-01T19:17:25.167Z,12.82
2023-01-01T19:20:31.587Z,13.32
2023-01-01T19:23:39.271Z,13.71
2023-01-01T19:26:45.084Z,14.06
2023-01-01T19:29:51.492Z,14.35
2023-01-01T19:32:56.164Z,14.58
2023-01-01T19:36:02.472Z,14.77
2023-01-01T19:39:07.671Z,14.78
2023-01-01T19:42:13.462Z,14.95
2023-01-01T19:45:20.108Z,15.05
2023-01-01T19:48:25.038Z,15.16
2023-01-01T19:51:31.235Z,15.31
2023-01-01T19:54:36.130Z,15.41
2023-01-01T19:57:41.039Z,15.43
2023-01-01T20:00:45.927Z,15.46
2023-01-01T20:03:55.942Z,15.50
2023-01-01T20:07:02.803Z,15.53
2023-01-01T20:10:07.959Z,15.52
2023-01-01T20:13:12.689Z,15.59
2023-01-01T20:16:19.697Z,15.53
2023-01-01T20:19:24.588Z,15.46
2023-01-01T20:22:31.121Z,15.46
2023-01-01T20:25:36.049Z,15.49
2023-01-01T20:28:57.444Z,15.49
2023-01-01T20:32:02.362Z,15.53
2023-01-01T20:35:07.386Z,15.54
2023-01-01T20:38:12.894Z,15.51
2023-01-01T20:41:26.152Z,15.46
2023-01-01T20:44:31.158Z,15.45
2023-01-01T20:47:37.122Z,15.50
2023-01-01T20:50:42.252Z,15.44
2023-01-01T20:53:48.302Z,15.38
2023-01-01T20:56:53.588Z,15.33
2023-01-01T20:59:58.213Z,15.22
2023-01-01T21:03:04.573Z,15.27
2023-01-01T21:06:09.601Z,15.27
2023-01-01T21:09:16.118Z,15.26
2023-01-01T21:12:30.170Z,15.32
2023-01-01T21:15:35.695Z,15.28
2023-01-01T21:18:40.322Z,15.32
2023-01-01T21:21:48.265Z,15.26
2023-01-01T21:25:10.830Z,15.30
2023-01-01T21:28:22.030Z,15.39
2023-01-01T21:31:31.778Z,15.38
2023-01-01T21:34:43.496Z,15.38
2023-01-01T21:37:53.481Z,15.45
2023-01-01T21:41:00.655Z,15.44
2023-01-01T21:44:05.471Z,15.46
2023-01-01T21:47:21.973Z,15.57
2023-01-01T21:50:28.782Z,15.61
2023-01-01T21:53:36.660Z,15.71
2023-01-01T21:56:44.926Z,15.78
2023-01-01T21:59:50.577Z,15.78
2023-01-01T22:02:55.651Z,15.89
2023-01-01T22:06:00.403Z,15.94
2023-01-01T22:09:16.016Z,15.97
2023-01-01T22:12:26.552Z,15.89
2023-01-01T22:15:39.941Z,15.94
2023-01-01T22:18:44.863Z,15.96
2023-01-01T22:21:51.035Z,15.86
2023-01-01T22:24:58.235Z,15.93
2023-01-01T22:28:19.623Z,15.93
2023-01-01T22:31:27.539Z,15.96
2023-01-01T22:34:32.702Z,15.97
2023-01-01T22:37:43.515Z,15.96
2023-01-01T22:40:51.235Z,15.89
2023-01-01T22:44:02.364Z,15.86
2023-01-01T22:47:08.506Z,15.83
2023-01-01T22:50:21.724Z,15.82
2023-01-01T22:53:26.555Z,15.84
2023-01-01T22:56:31.268Z,15.73
2023-01-01T22:59:37.553Z,15.67
2023-01-01T23:02:42.803Z,15.65
2023-01-01T23:05:47.354Z,15.67
2023-01-01T23:08:51.504Z,15.67
2023-01-01T23:11:55.938Z,15.62
2023-01-01T23:15:17.546Z,15.57
2023-01-01T23:18:20.246Z,15.64
2023-01-01T23:21:27.266Z,15.59
2023-01-01T23:24:31.520Z,15.62
2023-01-01T23:27:35.191Z,15.55
2023-01-01T23:30:39.513Z,15.47
2023-01-01T23:33:42.781Z,15.51
2023-01-01T23:36:45.715Z,15.43
2023-01-01T23:39:49.111Z,15.50
2023-01-01T23:42:51.763Z,15.43
2023-01-01T23:45:56.067Z,15.41
2023-01-01T23:48:58.756Z,15.38
2023-01-01T23:52:02.664Z,15.34
2023-01-01T23:55:06.055Z,15.37
2023-01-01T23:58:08.727Z,15.44
